sensor_id;sensor_type;location;lat;lon;timestamp;pressure;altitude;pressure_sealevel;temperature;humidity
1207;BME280;593;53.184;8.216;2023-05-23T00:00:24;101049.16;;;18.25;96.06
1207;BME280;593;53.184;8.216;2023-05-23T00:02:50;101049.47;;;18.24;96.47
1207;BME280;593;53.184;8.216;2023-05-23T00:05:15;101047.38;;;18.21;96.76
1207;BME280;593;53.184;8.216;2023-05-23T00:07:43;101045.09;;;18.23;96.86
1207;BME280;593;53.184;8.216;2023-05-23T00:10:08;101060.81;;;18.22;96.97
1207;BME280;593;53.184;8.216;2023-05-23T00:12:34;101045.28;;;18.18;96.83
1207;BME280;593;53.184;8.216;2023-05-23T00:14:59;101047.22;;;18.17;96.86
1207;BME280;593;53.184;8.216;2023-05-23T00:17:25;101045.28;;;18.18;96.89
1207;BME280;593;53.184;8.216;2023-05-23T00:19:50;101052.06;;;18.20;97.06
1207;BME280;593;53.184;8.216;2023-05-23T00:22:16;101048.84;;;18.18;97.29
1207;BME280;593;53.184;8.216;2023-05-23T00:24:42;101038.94;;;18.17;97.55
1207;BME280;593;53.184;8.216;2023-05-23T00:27:08;101033.78;;;18.16;97.43
1207;BME280;593;53.184;8.216;2023-05-23T00:29:33;101041.22;;;18.15;97.54
1207;BME280;593;53.184;8.216;2023-05-23T00:31:58;101037.31;;;18.16;97.38
1207;BME280;593;53.184;8.216;2023-05-23T00:34:24;101037.66;;;18.15;97.34
1207;BME280;593;53.184;8.216;2023-05-23T00:36:49;101037.66;;;18.15;97.14
1207;BME280;593;53.184;8.216;2023-05-23T00:39:15;101040.75;;;18.13;97.66
1207;BME280;593;53.184;8.216;2023-05-23T00:41:48;101037.97;;;18.13;97.70
1207;BME280;593;53.184;8.216;2023-05-23T00:44:14;101032.78;;;18.12;97.91
1207;BME280;593;53.184;8.216;2023-05-23T00:46:42;101044.59;;;18.12;98.07
1207;BME280;593;53.184;8.216;2023-05-23T00:49:08;101040.56;;;18.10;98.22
1207;BME280;593;53.184;8.216;2023-05-23T00:51:34;101039.75;;;18.09;98.00
1207;BME280;593;53.184;8.216;2023-05-23T00:54:01;101038.94;;;18.09;98.20
1207;BME280;593;53.184;8.216;2023-05-23T00:56:28;101038.94;;;18.09;98.05
1207;BME280;593;53.184;8.216;2023-05-23T00:58:54;101036.84;;;18.06;98.38
1207;BME280;593;53.184;8.216;2023-05-23T01:01:19;101033.75;;;18.07;97.94
1207;BME280;593;53.184;8.216;2023-05-23T01:03:45;101031.81;;;18.08;98.06
1207;BME280;593;53.184;8.216;2023-05-23T01:06:12;101017.88;;;18.04;98.24
1207;BME280;593;53.184;8.216;2023-05-23T01:08:38;101022.25;;;18.05;98.51
1207;BME280;593;53.184;8.216;2023-05-23T01:11:11;101021.44;;;18.05;98.00
1207;BME280;593;53.184;8.216;2023-05-23T01:13:48;101025.34;;;18.04;98.42
1207;BME280;593;53.184;8.216;2023-05-23T01:16:38;101024.53;;;18.03;98.07
1207;BME280;593;53.184;8.216;2023-05-23T01:22:07;100996.84;;;18.00;98.07
1207;BME280;593;53.184;8.216;2023-05-23T01:24:56;101007.03;;;17.99;97.92
1207;BME280;593;53.184;8.216;2023-05-23T01:27:52;101010.75;;;17.94;97.89
1207;BME280;593;53.184;8.216;2023-05-23T01:30:19;101015.13;;;17.96;98.26
1207;BME280;593;53.184;8.216;2023-05-23T01:32:47;101018.53;;;17.92;98.39
1207;BME280;593;53.184;8.216;2023-05-23T01:35:18;101032.47;;;17.96;97.95
1207;BME280;593;53.184;8.216;2023-05-23T01:37:46;101021.47;;;17.96;98.33
1207;BME280;593;53.184;8.216;2023-05-23T01:40:11;101022.91;;;17.93;98.50
1207;BME280;593;53.184;8.216;2023-05-23T01:42:36;101014.47;;;17.90;98.71
1207;BME280;593;53.184;8.216;2023-05-23T01:45:02;101023.56;;;17.90;98.54
1207;BME280;593;53.184;8.216;2023-05-23T01:47:28;101015.28;;;17.90;99.07
1207;BME280;593;53.184;8.216;2023-05-23T01:49:54;101026.44;;;17.94;99.03
1207;BME280;593;53.184;8.216;2023-05-23T01:52:21;101027.44;;;17.89;99.60
1207;BME280;593;53.184;8.216;2023-05-23T01:54:48;101032.28;;;17.92;99.59
1207;BME280;593;53.184;8.216;2023-05-23T01:57:14;101028.25;;;17.90;99.62
1207;BME280;593;53.184;8.216;2023-05-23T01:59:39;101021.44;;;17.87;99.51
1207;BME280;593;53.184;8.216;2023-05-23T02:02:05;101024.38;;;17.91;99.76
1207;BME280;593;53.184;8.216;2023-05-23T02:04:30;101021.63;;;17.91;99.94
1207;BME280;593;53.184;8.216;2023-05-23T02:06:56;101029.06;;;17.90;100.00
1207;BME280;593;53.184;8.216;2023-05-23T02:09:21;101034.09;;;17.88;100.00
1207;BME280;593;53.184;8.216;2023-05-23T02:11:46;101024.84;;;17.84;100.00
1207;BME280;593;53.184;8.216;2023-05-23T02:14:12;101030.34;;;17.84;99.99
1207;BME280;593;53.184;8.216;2023-05-23T02:16:37;101027.28;;;17.86;100.00
1207;BME280;593;53.184;8.216;2023-05-23T02:19:03;101023.22;;;17.83;100.00
1207;BME280;593;53.184;8.216;2023-05-23T02:21:28;101021.94;;;17.81;100.00
1207;BME280;593;53.184;8.216;2023-05-23T02:23:53;101024.84;;;17.84;100.00
1207;BME280;593;53.184;8.216;2023-05-23T02:26:19;101029.84;;;17.82;100.00
1207;BME280;593;53.184;8.216;2023-05-23T02:28:44;101021.75;;;17.77;100.00
1207;BME280;593;53.184;8.216;2023-05-23T02:31:10;101026.28;;;17.82;100.00
1207;BME280;593;53.184;8.216;2023-05-23T02:33:35;101021.13;;;17.80;100.00
1207;BME280;593;53.184;8.216;2023-05-23T02:36:00;101019.00;;;17.77;100.00
1207;BME280;593;53.184;8.216;2023-05-23T02:38:26;101025.31;;;17.78;100.00
1207;BME280;593;53.184;8.216;2023-05-23T02:40:52;101033.25;;;17.79;100.00
1207;BME280;593;53.184;8.216;2023-05-23T02:43:18;101032.41;;;17.79;100.00
1207;BME280;593;53.184;8.216;2023-05-23T02:45:43;101031.63;;;17.78;100.00
1207;BME280;593;53.184;8.216;2023-05-23T02:48:09;101036.16;;;17.74;100.00
1207;BME280;593;53.184;8.216;2023-05-23T02:50:36;101037.44;;;17.77;100.00
1207;BME280;593;53.184;8.216;2023-05-23T02:53:01;101039.53;;;17.71;100.00
1207;BME280;593;53.184;8.216;2023-05-23T02:55:26;101047.16;;;17.74;100.00
1207;BME280;593;53.184;8.216;2023-05-23T02:57:52;101056.84;;;17.72;100.00
1207;BME280;593;53.184;8.216;2023-05-23T03:00:18;101057.03;;;17.75;100.00
1207;BME280;593;53.184;8.216;2023-05-23T03:02:44;101056.56;;;17.73;100.00
1207;BME280;593;53.184;8.216;2023-05-23T03:05:09;101042.28;;;17.71;100.00
1207;BME280;593;53.184;8.216;2023-05-23T03:07:34;101050.88;;;17.70;100.00
1207;BME280;593;53.184;8.216;2023-05-23T03:10:00;101058.78;;;17.71;100.00
1207;BME280;593;53.184;8.216;2023-05-23T03:12:29;101059.75;;;17.67;100.00
1207;BME280;593;53.184;8.216;2023-05-23T03:14:54;101066.56;;;17.69;100.00
1207;BME280;593;53.184;8.216;2023-05-23T03:17:20;101056.19;;;17.66;100.00
1207;BME280;593;53.184;8.216;2023-05-23T03:19:45;101052.97;;;17.64;100.00
1207;BME280;593;53.184;8.216;2023-05-23T03:22:10;101068.00;;;17.67;100.00
1207;BME280;593;53.184;8.216;2023-05-23T03:24:36;101068.00;;;17.67;100.00
1207;BME280;593;53.184;8.216;2023-05-23T03:27:01;101068.50;;;17.60;100.00
1207;BME280;593;53.184;8.216;2023-05-23T03:29:27;101068.16;;;17.62;100.00
1207;BME280;593;53.184;8.216;2023-05-23T03:31:52;101075.28;;;17.63;100.00
1207;BME280;593;53.184;8.216;2023-05-23T03:34:17;101070.75;;;17.58;100.00
1207;BME280;593;53.184;8.216;2023-05-23T03:36:43;101081.09;;;17.61;100.00
1207;BME280;593;53.184;8.216;2023-05-23T03:39:08;101078.69;;;17.60;100.00
1207;BME280;593;53.184;8.216;2023-05-23T03:41:33;101080.75;;;17.54;100.00
1207;BME280;593;53.184;8.216;2023-05-23T03:43:59;101086.44;;;17.58;100.00
1207;BME280;593;53.184;8.216;2023-05-23T03:46:25;101082.06;;;17.57;100.00
1207;BME280;593;53.184;8.216;2023-05-23T03:48:50;101085.44;;;17.54;100.00
1207;BME280;593;53.184;8.216;2023-05-23T03:51:16;101100.00;;;17.54;100.00
1207;BME280;593;53.184;8.216;2023-05-23T03:53:41;101092.09;;;17.53;100.00
1207;BME280;593;53.184;8.216;2023-05-23T03:56:06;101092.19;;;17.48;100.00
1207;BME280;593;53.184;8.216;2023-05-23T03:58:32;101100.94;;;17.50;100.00
1207;BME280;593;53.184;8.216;2023-05-23T04:00:57;101101.28;;;17.48;100.00
1207;BME280;593;53.184;8.216;2023-05-23T04:03:22;101097.22;;;17.46;100.00
1207;BME280;593;53.184;8.216;2023-05-23T04:05:48;101092.97;;;17.40;100.00
1207;BME280;593;53.184;8.216;2023-05-23T04:08:14;101096.06;;;17.38;100.00
1207;BME280;593;53.184;8.216;2023-05-23T04:10:39;101100.75;;;17.38;100.00
1207;BME280;593;53.184;8.216;2023-05-23T04:13:05;101086.44;;;17.27;100.00
1207;BME280;593;53.184;8.216;2023-05-23T04:15:30;101115.94;;;17.35;100.00
1207;BME280;593;53.184;8.216;2023-05-23T04:17:58;101117.03;;;17.34;100.00
1207;BME280;593;53.184;8.216;2023-05-23T04:20:23;101122.69;;;17.29;100.00
1207;BME280;593;53.184;8.216;2023-05-23T04:22:49;101144.53;;;17.34;100.00
1207;BME280;593;53.184;8.216;2023-05-23T04:25:14;101138.56;;;17.32;100.00
1207;BME280;593;53.184;8.216;2023-05-23T04:27:43;101133.19;;;17.27;100.00
1207;BME280;593;53.184;8.216;2023-05-23T04:30:09;101132.88;;;17.28;100.00
1207;BME280;593;53.184;8.216;2023-05-23T04:32:34;101137.38;;;17.24;100.00
1207;BME280;593;53.184;8.216;2023-05-23T04:35:00;101145.63;;;17.24;100.00
1207;BME280;593;53.184;8.216;2023-05-23T04:37:29;101139.63;;;17.22;100.00
1207;BME280;593;53.184;8.216;2023-05-23T04:39:57;101141.41;;;17.18;100.00
1207;BME280;593;53.184;8.216;2023-05-23T04:42:24;101142.03;;;17.15;100.00
1207;BME280;593;53.184;8.216;2023-05-23T04:44:50;101153.19;;;17.19;100.00
1207;BME280;593;53.184;8.216;2023-05-23T04:47:16;101144.28;;;17.13;100.00
1207;BME280;593;53.184;8.216;2023-05-23T04:49:43;101160.47;;;17.15;100.00
1207;BME280;593;53.184;8.216;2023-05-23T04:52:09;101159.97;;;17.13;100.00
1207;BME280;593;53.184;8.216;2023-05-23T04:54:34;101162.53;;;17.09;100.00
1207;BME280;593;53.184;8.216;2023-05-23T04:57:00;101164.78;;;17.07;100.00
1207;BME280;593;53.184;8.216;2023-05-23T04:59:25;101178.53;;;17.07;100.00
1207;BME280;593;53.184;8.216;2023-05-23T05:01:51;101171.03;;;16.99;100.00
1207;BME280;593;53.184;8.216;2023-05-23T05:04:16;101186.69;;;16.99;100.00
1207;BME280;593;53.184;8.216;2023-05-23T05:06:41;101193.81;;;17.00;100.00
1207;BME280;593;53.184;8.216;2023-05-23T05:09:07;101192.84;;;16.96;100.00
1207;BME280;593;53.184;8.216;2023-05-23T05:11:32;101196.69;;;16.95;100.00
1207;BME280;593;53.184;8.216;2023-05-23T05:13:57;101191.81;;;16.92;100.00
1207;BME280;593;53.184;8.216;2023-05-23T05:16:23;101210.56;;;16.90;100.00
1207;BME280;593;53.184;8.216;2023-05-23T05:18:48;101211.50;;;16.85;100.00
1207;BME280;593;53.184;8.216;2023-05-23T05:21:13;101208.53;;;16.82;100.00
1207;BME280;593;53.184;8.216;2023-05-23T05:23:39;101216.28;;;16.80;100.00
1207;BME280;593;53.184;8.216;2023-05-23T05:26:04;101222.59;;;16.80;100.00
1207;BME280;593;53.184;8.216;2023-05-23T05:28:30;101217.53;;;16.74;100.00
1207;BME280;593;53.184;8.216;2023-05-23T05:30:55;101228.00;;;16.72;100.00
1207;BME280;593;53.184;8.216;2023-05-23T05:33:21;101226.69;;;16.69;100.00
1207;BME280;593;53.184;8.216;2023-05-23T05:35:48;101235.88;;;16.64;100.00
1207;BME280;593;53.184;8.216;2023-05-23T05:38:15;101239.72;;;16.63;100.00
1207;BME280;593;53.184;8.216;2023-05-23T05:40:40;101240.88;;;16.62;100.00
1207;BME280;593;53.184;8.216;2023-05-23T05:43:06;101239.34;;;16.56;100.00
1207;BME280;593;53.184;8.216;2023-05-23T05:45:31;101245.03;;;16.60;100.00
1207;BME280;593;53.184;8.216;2023-05-23T05:47:58;101252.78;;;16.58;100.00
1207;BME280;593;53.184;8.216;2023-05-23T05:50:23;101254.22;;;16.55;100.00
1207;BME280;593;53.184;8.216;2023-05-23T05:52:49;101250.16;;;16.53;100.00
1207;BME280;593;53.184;8.216;2023-05-23T05:55:15;101258.13;;;16.49;100.00
1207;BME280;593;53.184;8.216;2023-05-23T05:57:40;101269.63;;;16.51;100.00
1207;BME280;593;53.184;8.216;2023-05-23T06:00:08;101270.56;;;16.47;100.00
1207;BME280;593;53.184;8.216;2023-05-23T06:02:38;101274.72;;;16.44;100.00
1207;BME280;593;53.184;8.216;2023-05-23T06:05:04;101280.72;;;16.46;100.00
1207;BME280;593;53.184;8.216;2023-05-23T06:07:32;101270.66;;;16.42;100.00
1207;BME280;593;53.184;8.216;2023-05-23T06:09:58;101278.06;;;16.41;100.00
1207;BME280;593;53.184;8.216;2023-05-23T06:12:23;101283.88;;;16.40;100.00
1207;BME280;593;53.184;8.216;2023-05-23T06:14:48;101290.47;;;16.39;100.00
1207;BME280;593;53.184;8.216;2023-05-23T06:17:14;101294.06;;;16.39;100.00
1207;BME280;593;53.184;8.216;2023-05-23T06:19:39;101304.03;;;16.35;100.00
1207;BME280;593;53.184;8.216;2023-05-23T06:22:04;101294.75;;;16.31;100.00
1207;BME280;593;53.184;8.216;2023-05-23T06:24:30;101308.47;;;16.31;100.00
1207;BME280;593;53.184;8.216;2023-05-23T06:26:55;101316.44;;;16.33;100.00
1207;BME280;593;53.184;8.216;2023-05-23T06:29:20;101309.72;;;16.25;100.00
1207;BME280;593;53.184;8.216;2023-05-23T06:31:45;101316.53;;;16.28;100.00
1207;BME280;593;53.184;8.216;2023-05-23T06:34:11;101318.47;;;16.27;100.00
1207;BME280;593;53.184;8.216;2023-05-23T06:36:36;101331.69;;;16.25;100.00
1207;BME280;593;53.184;8.216;2023-05-23T06:39:01;101338.28;;;16.24;100.00
1207;BME280;593;53.184;8.216;2023-05-23T06:41:27;101336.66;;;16.23;100.00
1207;BME280;593;53.184;8.216;2023-05-23T06:43:52;101327.19;;;16.16;100.00
1207;BME280;593;53.184;8.216;2023-05-23T06:46:17;101339.50;;;16.18;100.00
1207;BME280;593;53.184;8.216;2023-05-23T06:48:42;101342.53;;;16.17;100.00
1207;BME280;593;53.184;8.216;2023-05-23T06:51:08;101352.69;;;16.16;100.00
1207;BME280;593;53.184;8.216;2023-05-23T06:53:34;101348.34;;;16.15;100.00
1207;BME280;593;53.184;8.216;2023-05-23T06:55:59;101352.00;;;16.11;100.00
1207;BME280;593;53.184;8.216;2023-05-23T06:58:25;101361.03;;;16.11;100.00
1207;BME280;593;53.184;8.216;2023-05-23T07:00:51;101366.00;;;16.09;100.00
1207;BME280;593;53.184;8.216;2023-05-23T07:03:16;101361.34;;;16.10;100.00
1207;BME280;593;53.184;8.216;2023-05-23T07:05:42;101379.22;;;16.07;100.00
1207;BME280;593;53.184;8.216;2023-05-23T07:08:08;101375.47;;;16.03;100.00
1207;BME280;593;53.184;8.216;2023-05-23T07:10:34;101387.22;;;16.03;100.00
1207;BME280;593;53.184;8.216;2023-05-23T07:13:00;101382.66;;;15.99;100.00
1207;BME280;593;53.184;8.216;2023-05-23T07:15:25;101383.47;;;15.99;100.00
1207;BME280;593;53.184;8.216;2023-05-23T07:17:50;101380.50;;;15.96;100.00
1207;BME280;593;53.184;8.216;2023-05-23T07:20:16;101387.63;;;15.97;100.00
1207;BME280;593;53.184;8.216;2023-05-23T07:22:41;101402.44;;;15.96;100.00
1207;BME280;593;53.184;8.216;2023-05-23T07:25:07;101397.28;;;15.94;100.00
1207;BME280;593;53.184;8.216;2023-05-23T07:27:33;101406.41;;;15.90;100.00
1207;BME280;593;53.184;8.216;2023-05-23T07:29:59;101397.13;;;15.86;100.00
1207;BME280;593;53.184;8.216;2023-05-23T07:32:24;101407.31;;;15.85;100.00
1207;BME280;593;53.184;8.216;2023-05-23T07:34:49;101411.47;;;15.83;100.00
1207;BME280;593;53.184;8.216;2023-05-23T07:37:15;101415.31;;;15.82;100.00
1207;BME280;593;53.184;8.216;2023-05-23T07:39:40;101421.41;;;15.79;100.00
1207;BME280;593;53.184;8.216;2023-05-23T07:42:06;101427.72;;;15.79;100.00
1207;BME280;593;53.184;8.216;2023-05-23T07:44:31;101437.03;;;15.78;100.00
1207;BME280;593;53.184;8.216;2023-05-23T07:46:56;101418.44;;;15.75;100.00
1207;BME280;593;53.184;8.216;2023-05-23T07:49:22;101437.34;;;15.77;100.00
1207;BME280;593;53.184;8.216;2023-05-23T07:51:47;101427.56;;;15.71;100.00
1207;BME280;593;53.184;8.216;2023-05-23T07:54:13;101439.66;;;15.70;100.00
1207;BME280;593;53.184;8.216;2023-05-23T07:56:38;101449.50;;;15.71;100.00
1207;BME280;593;53.184;8.216;2023-05-23T07:59:03;101454.78;;;15.67;100.00
1207;BME280;593;53.184;8.216;2023-05-23T08:01:29;101451.22;;;15.67;100.00
1207;BME280;593;53.184;8.216;2023-05-23T08:03:54;101467.09;;;15.70;100.00
1207;BME280;593;53.184;8.216;2023-05-23T08:06:20;101465.75;;;15.67;99.68
1207;BME280;593;53.184;8.216;2023-05-23T08:08:45;101475.59;;;15.68;99.91
1207;BME280;593;53.184;8.216;2023-05-23T08:11:10;101477.81;;;15.66;99.49
1207;BME280;593;53.184;8.216;2023-05-23T08:13:35;101472.72;;;15.60;99.35
1207;BME280;593;53.184;8.216;2023-05-23T08:16:01;101473.00;;;15.58;99.05
1207;BME280;593;53.184;8.216;2023-05-23T08:18:26;101488.03;;;15.61;98.78
1207;BME280;593;53.184;8.216;2023-05-23T08:20:52;101476.56;;;15.59;98.34
1207;BME280;593;53.184;8.216;2023-05-23T08:23:18;101485.09;;;15.57;98.00
1207;BME280;593;53.184;8.216;2023-05-23T08:25:43;101483.44;;;15.56;97.69
1207;BME280;593;53.184;8.216;2023-05-23T08:28:08;101488.09;;;15.56;97.79
1207;BME280;593;53.184;8.216;2023-05-23T08:30:34;101496.94;;;15.53;97.57
1207;BME280;593;53.184;8.216;2023-05-23T08:32:59;101499.69;;;15.53;97.54
1207;BME280;593;53.184;8.216;2023-05-23T08:35:29;101492.88;;;15.50;97.44
1207;BME280;593;53.184;8.216;2023-05-23T08:37:59;101508.19;;;15.51;97.79
1207;BME280;593;53.184;8.216;2023-05-23T08:40:26;101507.97;;;15.48;97.27
1207;BME280;593;53.184;8.216;2023-05-23T08:42:53;101505.78;;;15.45;97.34
1207;BME280;593;53.184;8.216;2023-05-23T08:45:18;101511.81;;;15.47;96.35
1207;BME280;593;53.184;8.216;2023-05-23T08:47:44;101512.38;;;15.43;97.01
1207;BME280;593;53.184;8.216;2023-05-23T08:50:12;101522.53;;;15.48;96.44
1207;BME280;593;53.184;8.216;2023-05-23T08:52:58;101529.41;;;15.46;96.36
1207;BME280;593;53.184;8.216;2023-05-23T08:55:24;101532.16;;;15.46;95.86
1207;BME280;593;53.184;8.216;2023-05-23T08:57:59;101533.22;;;15.45;95.39
1207;BME280;593;53.184;8.216;2023-05-23T09:00:26;101534.31;;;15.43;95.40
1207;BME280;593;53.184;8.216;2023-05-23T09:02:52;101535.97;;;15.45;94.57
1207;BME280;593;53.184;8.216;2023-05-23T09:05:19;101539.28;;;15.41;93.88
1207;BME280;593;53.184;8.216;2023-05-23T09:07:45;101537.63;;;15.46;93.76
1207;BME280;593;53.184;8.216;2023-05-23T09:10:12;101539.25;;;15.47;93.12
1207;BME280;593;53.184;8.216;2023-05-23T09:12:38;101537.84;;;15.49;91.79
1207;BME280;593;53.184;8.216;2023-05-23T09:15:05;101544.16;;;15.50;91.82
1207;BME280;593;53.184;8.216;2023-05-23T09:17:32;101544.16;;;15.50;91.25
1207;BME280;593;53.184;8.216;2023-05-23T09:19:58;101554.53;;;15.53;91.21
1207;BME280;593;53.184;8.216;2023-05-23T09:22:25;101546.81;;;15.55;91.00
1207;BME280;593;53.184;8.216;2023-05-23T09:24:51;101562.69;;;15.58;91.04
1207;BME280;593;53.184;8.216;2023-05-23T09:27:17;101567.88;;;15.59;90.41
1207;BME280;593;53.184;8.216;2023-05-23T09:29:43;101564.63;;;15.57;89.66
1207;BME280;593;53.184;8.216;2023-05-23T09:32:19;101568.13;;;15.63;89.23
1207;BME280;593;53.184;8.216;2023-05-23T09:34:59;101567.50;;;15.66;88.89
1207;BME280;593;53.184;8.216;2023-05-23T09:39:53;101565.84;;;15.70;88.28
1207;BME280;593;53.184;8.216;2023-05-23T09:42:20;101567.44;;;15.71;88.30
1207;BME280;593;53.184;8.216;2023-05-23T09:44:49;101580.50;;;15.79;88.25
1207;BME280;593;53.184;8.216;2023-05-23T09:47:15;101575.03;;;15.79;88.70
1207;BME280;593;53.184;8.216;2023-05-23T09:49:45;101576.09;;;15.83;88.19
1207;BME280;593;53.184;8.216;2023-05-23T09:52:11;101572.22;;;15.84;88.33
1207;BME280;593;53.184;8.216;2023-05-23T09:54:37;101567.56;;;15.84;88.16
1207;BME280;593;53.184;8.216;2023-05-23T09:57:08;101583.88;;;15.94;88.30
1207;BME280;593;53.184;8.216;2023-05-23T09:59:40;101585.22;;;15.97;87.62
1207;BME280;593;53.184;8.216;2023-05-23T10:02:07;101581.38;;;15.98;86.83
1207;BME280;593;53.184;8.216;2023-05-23T10:04:36;101589.53;;;16.03;86.66
1207;BME280;593;53.184;8.216;2023-05-23T10:07:12;101589.72;;;16.07;86.50
1207;BME280;593;53.184;8.216;2023-05-23T10:09:41;101601.53;;;16.07;86.07
1207;BME280;593;53.184;8.216;2023-05-23T10:15:01;101598.47;;;16.09;85.04
1207;BME280;593;53.184;8.216;2023-05-23T10:17:32;101597.91;;;16.12;84.95
1207;BME280;593;53.184;8.216;2023-05-23T10:20:03;101597.00;;;16.16;84.87
1207;BME280;593;53.184;8.216;2023-05-23T10:22:35;101599.69;;;16.21;84.96
1207;BME280;593;53.184;8.216;2023-05-23T10:25:02;101602.34;;;16.26;84.12
1207;BME280;593;53.184;8.216;2023-05-23T10:27:30;101610.06;;;16.24;83.35
1207;BME280;593;53.184;8.216;2023-05-23T10:29:56;101607.56;;;16.28;83.36
1207;BME280;593;53.184;8.216;2023-05-23T10:32:23;101616.00;;;16.31;82.96
1207;BME280;593;53.184;8.216;2023-05-23T10:35:00;101615.72;;;16.33;81.77
1207;BME280;593;53.184;8.216;2023-05-23T10:40:09;101621.94;;;16.38;80.26
1207;BME280;593;53.184;8.216;2023-05-23T10:42:44;101616.66;;;16.42;80.16
1207;BME280;593;53.184;8.216;2023-05-23T10:45:17;101625.34;;;16.49;80.00
1207;BME280;593;53.184;8.216;2023-05-23T10:47:43;101632.72;;;16.53;79.86
1207;BME280;593;53.184;8.216;2023-05-23T10:50:12;101629.59;;;16.60;80.03
1207;BME280;593;53.184;8.216;2023-05-23T10:52:42;101629.03;;;16.63;79.38
1207;BME280;593;53.184;8.216;2023-05-23T10:55:14;101626.69;;;16.70;78.66
1207;BME280;593;53.184;8.216;2023-05-23T10:57:42;101628.22;;;16.76;78.66
1207;BME280;593;53.184;8.216;2023-05-23T11:00:13;101625.72;;;16.80;78.58
1207;BME280;593;53.184;8.216;2023-05-23T11:02:46;101634.69;;;16.85;78.34
1207;BME280;593;53.184;8.216;2023-05-23T11:05:17;101633.88;;;16.85;77.60
1207;BME280;593;53.184;8.216;2023-05-23T11:07:44;101637.13;;;16.87;76.84
1207;BME280;593;53.184;8.216;2023-05-23T11:10:13;101614.03;;;16.88;75.86
1207;BME280;593;53.184;8.216;2023-05-23T11:12:43;101621.59;;;16.96;76.23
1207;BME280;593;53.184;8.216;2023-05-23T11:17:55;101636.19;;;17.10;76.87
1207;BME280;593;53.184;8.216;2023-05-23T11:20:23;101639.03;;;17.05;72.80
1207;BME280;593;53.184;8.216;2023-05-23T11:23:01;101649.84;;;17.15;74.52
1207;BME280;593;53.184;8.216;2023-05-23T11:25:43;101644.75;;;17.22;75.36
1207;BME280;593;53.184;8.216;2023-05-23T11:28:11;101646.31;;;17.28;74.38
1207;BME280;593;53.184;8.216;2023-05-23T11:30:37;101652.50;;;17.33;74.55
1207;BME280;593;53.184;8.216;2023-05-23T11:33:10;101654.88;;;17.40;74.00
1207;BME280;593;53.184;8.216;2023-05-23T11:35:47;101652.97;;;17.41;73.73
1207;BME280;593;53.184;8.216;2023-05-23T11:38:14;101671.28;;;17.45;73.37
1207;BME280;593;53.184;8.216;2023-05-23T11:40:42;101670.06;;;17.51;73.07
1207;BME280;593;53.184;8.216;2023-05-23T11:43:10;101661.25;;;17.54;73.17
1207;BME280;593;53.184;8.216;2023-05-23T11:45:36;101662.47;;;17.62;73.83
1207;BME280;593;53.184;8.216;2023-05-23T11:48:09;101674.19;;;17.67;73.13
1207;BME280;593;53.184;8.216;2023-05-23T11:50:43;101662.88;;;17.69;71.80
1207;BME280;593;53.184;8.216;2023-05-23T11:53:10;101672.66;;;17.75;71.55
1207;BME280;593;53.184;8.216;2023-05-23T11:55:38;101680.31;;;17.78;71.64
1207;BME280;593;53.184;8.216;2023-05-23T11:58:04;101676.03;;;17.85;71.58
1207;BME280;593;53.184;8.216;2023-05-23T12:00:29;101677.06;;;17.89;71.48
1207;BME280;593;53.184;8.216;2023-05-23T12:02:55;101680.31;;;17.91;71.65
1207;BME280;593;53.184;8.216;2023-05-23T12:05:21;101684.59;;;17.98;70.61
1207;BME280;593;53.184;8.216;2023-05-23T12:07:48;101680.91;;;18.02;70.33
1207;BME280;593;53.184;8.216;2023-05-23T12:10:14;101675.31;;;18.07;70.07
1207;BME280;593;53.184;8.216;2023-05-23T12:12:45;101678.88;;;18.08;69.11
1207;BME280;593;53.184;8.216;2023-05-23T12:15:12;101670.31;;;18.09;68.66
1207;BME280;593;53.184;8.216;2023-05-23T12:17:38;101677.53;;;18.19;69.05
1207;BME280;593;53.184;8.216;2023-05-23T12:20:10;101671.41;;;18.22;69.64
1207;BME280;593;53.184;8.216;2023-05-23T12:22:35;101681.81;;;18.25;70.04
1207;BME280;593;53.184;8.216;2023-05-23T12:25:00;101683.97;;;18.28;70.43
1207;BME280;593;53.184;8.216;2023-05-23T12:27:33;101682.03;;;18.28;69.97
1207;BME280;593;53.184;8.216;2023-05-23T12:30:11;101685.78;;;18.32;69.60
1207;BME280;593;53.184;8.216;2023-05-23T12:32:41;101686.00;;;18.36;69.37
1207;BME280;593;53.184;8.216;2023-05-23T12:35:11;101691.69;;;18.39;69.20
1207;BME280;593;53.184;8.216;2023-05-23T12:37:44;101687.19;;;18.43;68.88
1207;BME280;593;53.184;8.216;2023-05-23T12:40:16;101692.72;;;18.43;68.13
1207;BME280;593;53.184;8.216;2023-05-23T12:42:52;101689.03;;;18.48;67.48
1207;BME280;593;53.184;8.216;2023-05-23T12:45:19;101698.81;;;18.54;66.92
1207;BME280;593;53.184;8.216;2023-05-23T12:47:45;101696.59;;;18.56;66.26
1207;BME280;593;53.184;8.216;2023-05-23T12:50:10;101693.81;;;18.56;66.53
1207;BME280;593;53.184;8.216;2023-05-23T12:52:36;101690.75;;;18.58;65.90
1207;BME280;593;53.184;8.216;2023-05-23T12:55:02;101709.09;;;18.62;65.60
1207;BME280;593;53.184;8.216;2023-05-23T12:57:27;101684.91;;;18.59;65.47
1207;BME280;593;53.184;8.216;2023-05-23T12:59:53;101696.47;;;18.61;65.84
1207;BME280;593;53.184;8.216;2023-05-23T13:02:18;101705.25;;;18.63;65.96
1207;BME280;593;53.184;8.216;2023-05-23T13:04:43;101707.88;;;18.68;65.68
1207;BME280;593;53.184;8.216;2023-05-23T13:07:09;101702.84;;;18.70;65.13
1207;BME280;593;53.184;8.216;2023-05-23T13:09:34;101706.63;;;18.74;65.48
1207;BME280;593;53.184;8.216;2023-05-23T13:11:59;101712.66;;;18.76;65.40
1207;BME280;593;53.184;8.216;2023-05-23T13:14:25;101708.47;;;18.79;64.70
1207;BME280;593;53.184;8.216;2023-05-23T13:16:50;101713.16;;;18.78;63.46
1207;BME280;593;53.184;8.216;2023-05-23T13:19:16;101706.69;;;18.83;63.27
1207;BME280;593;53.184;8.216;2023-05-23T13:21:41;101713.03;;;18.83;62.95
1207;BME280;593;53.184;8.216;2023-05-23T13:24:07;101714.66;;;18.84;63.13
1207;BME280;593;53.184;8.216;2023-05-23T13:26:33;101725.06;;;18.87;63.28
1207;BME280;593;53.184;8.216;2023-05-23T13:28:58;101715.34;;;18.90;62.06